sensor_id;sensor_type;location;lat;lon;timestamp;P1;durP1;ratioP1;P2;durP2;ratioP2
18917;SDS011;9591;52.742;13.650;2024-02-21T00:01:24;26.53;;;7.27;;
18917;SDS011;9591;52.742;13.650;2024-02-21T00:04:11;18.60;;;7.53;;
18917;SDS011;9591;52.742;13.650;2024-02-21T00:06:58;20.27;;;7.23;;
18917;SDS011;9591;52.742;13.650;2024-02-21T00:09:45;25.90;;;7.93;;
18917;SDS011;9591;52.742;13.650;2024-02-21T00:12:32;21.40;;;8.77;;
18917;SDS011;9591;52.742;13.650;2024-02-21T00:15:19;28.40;;;9.27;;
18917;SDS011;9591;52.742;13.650;2024-02-21T00:18:07;18.50;;;7.53;;
18917;SDS011;9591;52.742;13.650;2024-02-21T00:20:56;24.63;;;7.97;;
18917;SDS011;9591;52.742;13.650;2024-02-21T00:23:43;28.30;;;7.83;;
18917;SDS011;9591;52.742;13.650;2024-02-21T00:26:31;15.60;;;6.93;;
18917;SDS011;9591;52.742;13.650;2024-02-21T00:29:18;16.90;;;7.17;;
18917;SDS011;9591;52.742;13.650;2024-02-21T00:32:05;27.03;;;8.07;;
18917;SDS011;9591;52.742;13.650;2024-02-21T00:34:53;22.37;;;7.57;;
18917;SDS011;9591;52.742;13.650;2024-02-21T00:37:40;24.70;;;7.03;;
18917;SDS011;9591;52.742;13.650;2024-02-21T00:40:27;22.27;;;6.80;;
18917;SDS011;9591;52.742;13.650;2024-02-21T00:43:14;23.47;;;6.90;;
18917;SDS011;9591;52.742;13.650;2024-02-21T00:46:00;20.30;;;6.97;;
18917;SDS011;9591;52.742;13.650;2024-02-21T00:48:47;23.80;;;6.47;;
18917;SDS011;9591;52.742;13.650;2024-02-21T00:51:36;22.83;;;6.53;;
18917;SDS011;9591;52.742;13.650;2024-02-21T00:54:23;17.80;;;6.17;;
18917;SDS011;9591;52.742;13.650;2024-02-21T00:57:15;17.70;;;5.73;;
18917;SDS011;9591;52.742;13.650;2024-02-21T01:00:03;22.07;;;6.07;;
18917;SDS011;9591;52.742;13.650;2024-02-21T01:02:50;20.60;;;6.33;;
18917;SDS011;9591;52.742;13.650;2024-02-21T01:05:38;21.13;;;6.40;;
18917;SDS011;9591;52.742;13.650;2024-02-21T01:08:26;21.93;;;7.07;;
18917;SDS011;9591;52.742;13.650;2024-02-21T01:11:13;16.93;;;5.27;;
18917;SDS011;9591;52.742;13.650;2024-02-21T01:14:00;16.57;;;6.40;;
18917;SDS011;9591;52.742;13.650;2024-02-21T01:16:47;20.73;;;6.83;;
18917;SDS011;9591;52.742;13.650;2024-02-21T01:19:34;21.53;;;5.57;;
18917;SDS011;9591;52.742;13.650;2024-02-21T01:22:20;22.20;;;6.07;;
18917;SDS011;9591;52.742;13.650;2024-02-21T01:25:09;19.77;;;5.70;;
18917;SDS011;9591;52.742;13.650;2024-02-21T01:27:56;19.80;;;6.37;;
18917;SDS011;9591;52.742;13.650;2024-02-21T01:30:42;14.70;;;5.17;;
18917;SDS011;9591;52.742;13.650;2024-02-21T01:33:29;14.63;;;5.13;;
18917;SDS011;9591;52.742;13.650;2024-02-21T01:36:20;22.83;;;5.43;;
18917;SDS011;9591;52.742;13.650;2024-02-21T01:39:07;16.20;;;5.10;;
18917;SDS011;9591;52.742;13.650;2024-02-21T01:41:55;20.57;;;5.30;;
18917;SDS011;9591;52.742;13.650;2024-02-21T01:44:42;20.03;;;4.40;;
18917;SDS011;9591;52.742;13.650;2024-02-21T01:47:29;17.33;;;5.53;;
18917;SDS011;9591;52.742;13.650;2024-02-21T01:50:15;16.60;;;4.93;;
18917;SDS011;9591;52.742;13.650;2024-02-21T01:53:03;23.80;;;5.30;;
18917;SDS011;9591;52.742;13.650;2024-02-21T01:55:50;14.43;;;5.50;;
18917;SDS011;9591;52.742;13.650;2024-02-21T01:58:40;17.50;;;5.57;;
18917;SDS011;9591;52.742;13.650;2024-02-21T02:01:29;11.63;;;4.47;;
18917;SDS011;9591;52.742;13.650;2024-02-21T02:04:16;16.47;;;5.03;;
18917;SDS011;9591;52.742;13.650;2024-02-21T02:07:03;15.23;;;4.73;;
18917;SDS011;9591;52.742;13.650;2024-02-21T02:09:52;26.90;;;5.47;;
18917;SDS011;9591;52.742;13.650;2024-02-21T02:12:39;16.67;;;5.60;;
18917;SDS011;9591;52.742;13.650;2024-02-21T02:15:37;16.57;;;5.03;;
18917;SDS011;9591;52.742;13.650;2024-02-21T02:18:24;17.17;;;4.53;;
18917;SDS011;9591;52.742;13.650;2024-02-21T02:21:13;23.63;;;4.77;;
18917;SDS011;9591;52.742;13.650;2024-02-21T02:24:11;16.60;;;5.10;;
18917;SDS011;9591;52.742;13.650;2024-02-21T02:26:58;10.87;;;4.63;;
18917;SDS011;9591;52.742;13.650;2024-02-21T02:29:45;22.20;;;4.73;;
18917;SDS011;9591;52.742;13.650;2024-02-21T02:32:32;16.80;;;6.10;;
18917;SDS011;9591;52.742;13.650;2024-02-21T02:35:19;11.83;;;3.90;;
18917;SDS011;9591;52.742;13.650;2024-02-21T02:38:06;16.37;;;4.60;;
18917;SDS011;9591;52.742;13.650;2024-02-21T02:40:54;11.17;;;4.67;;
18917;SDS011;9591;52.742;13.650;2024-02-21T02:43:41;14.13;;;4.23;;
18917;SDS011;9591;52.742;13.650;2024-02-21T02:46:28;15.63;;;4.60;;
18917;SDS011;9591;52.742;13.650;2024-02-21T02:49:15;9.77;;;4.50;;
18917;SDS011;9591;52.742;13.650;2024-02-21T02:52:02;20.40;;;4.80;;
18917;SDS011;9591;52.742;13.650;2024-02-21T02:54:49;12.53;;;5.30;;
18917;SDS011;9591;52.742;13.650;2024-02-21T02:57:38;19.23;;;4.97;;
18917;SDS011;9591;52.742;13.650;2024-02-21T03:00:26;9.37;;;4.07;;
18917;SDS011;9591;52.742;13.650;2024-02-21T03:03:13;13.37;;;5.07;;
18917;SDS011;9591;52.742;13.650;2024-02-21T03:06:00;18.83;;;4.80;;
18917;SDS011;9591;52.742;13.650;2024-02-21T03:08:47;14.60;;;4.97;;
18917;SDS011;9591;52.742;13.650;2024-02-21T03:11:35;19.73;;;4.73;;
18917;SDS011;9591;52.742;13.650;2024-02-21T03:14:24;20.53;;;5.30;;
18917;SDS011;9591;52.742;13.650;2024-02-21T03:17:11;22.00;;;5.17;;
18917;SDS011;9591;52.742;13.650;2024-02-21T03:19:58;21.00;;;5.83;;
18917;SDS011;9591;52.742;13.650;2024-02-21T03:22:45;16.27;;;4.93;;
18917;SDS011;9591;52.742;13.650;2024-02-21T03:25:32;14.73;;;5.17;;
18917;SDS011;9591;52.742;13.650;2024-02-21T03:28:19;10.63;;;4.77;;
18917;SDS011;9591;52.742;13.650;2024-02-21T03:31:07;23.77;;;5.37;;
18917;SDS011;9591;52.742;13.650;2024-02-21T03:33:54;16.73;;;4.70;;
18917;SDS011;9591;52.742;13.650;2024-02-21T03:36:41;12.67;;;5.00;;
18917;SDS011;9591;52.742;13.650;2024-02-21T03:39:30;16.87;;;5.07;;
18917;SDS011;9591;52.742;13.650;2024-02-21T03:42:17;15.60;;;5.10;;
18917;SDS011;9591;52.742;13.650;2024-02-21T03:45:05;18.83;;;5.33;;
18917;SDS011;9591;52.742;13.650;2024-02-21T03:47:53;11.87;;;4.53;;
18917;SDS011;9591;52.742;13.650;2024-02-21T03:50:40;12.50;;;5.27;;
18917;SDS011;9591;52.742;13.650;2024-02-21T03:53:27;14.57;;;5.03;;
18917;SDS011;9591;52.742;13.650;2024-02-21T03:56:14;21.07;;;5.50;;
18917;SDS011;9591;52.742;13.650;2024-02-21T03:59:01;22.13;;;5.30;;
18917;SDS011;9591;52.742;13.650;2024-02-21T04:01:51;11.93;;;4.90;;
18917;SDS011;9591;52.742;13.650;2024-02-21T04:04:42;12.80;;;5.67;;
18917;SDS011;9591;52.742;13.650;2024-02-21T04:07:31;14.37;;;5.93;;
18917;SDS011;9591;52.742;13.650;2024-02-21T04:10:18;21.60;;;6.03;;
18917;SDS011;9591;52.742;13.650;2024-02-21T04:13:06;17.23;;;5.73;;
18917;SDS011;9591;52.742;13.650;2024-02-21T04:15:53;12.23;;;5.30;;
18917;SDS011;9591;52.742;13.650;2024-02-21T04:18:40;14.67;;;5.87;;
18917;SDS011;9591;52.742;13.650;2024-02-21T04:21:28;14.40;;;6.03;;
18917;SDS011;9591;52.742;13.650;2024-02-21T04:24:15;18.60;;;5.30;;
18917;SDS011;9591;52.742;13.650;2024-02-21T04:27:01;20.53;;;6.50;;
18917;SDS011;9591;52.742;13.650;2024-02-21T04:29:48;21.60;;;7.20;;
18917;SDS011;9591;52.742;13.650;2024-02-21T04:32:35;11.47;;;4.67;;
18917;SDS011;9591;52.742;13.650;2024-02-21T04:35:22;16.07;;;5.90;;
18917;SDS011;9591;52.742;13.650;2024-02-21T04:38:10;21.03;;;6.40;;
18917;SDS011;9591;52.742;13.650;2024-02-21T04:40:57;19.13;;;6.93;;
18917;SDS011;9591;52.742;13.650;2024-02-21T04:43:45;17.50;;;6.07;;
18917;SDS011;9591;52.742;13.650;2024-02-21T04:46:32;18.40;;;7.10;;
18917;SDS011;9591;52.742;13.650;2024-02-21T04:49:19;26.67;;;7.37;;
18917;SDS011;9591;52.742;13.650;2024-02-21T04:52:06;19.60;;;7.57;;
18917;SDS011;9591;52.742;13.650;2024-02-21T04:54:54;15.77;;;6.50;;
18917;SDS011;9591;52.742;13.650;2024-02-21T04:57:41;23.00;;;8.10;;
18917;SDS011;9591;52.742;13.650;2024-02-21T05:00:28;17.33;;;6.87;;
18917;SDS011;9591;52.742;13.650;2024-02-21T05:03:15;22.23;;;7.53;;
18917;SDS011;9591;52.742;13.650;2024-02-21T05:06:01;18.60;;;7.10;;
18917;SDS011;9591;52.742;13.650;2024-02-21T05:08:48;14.43;;;6.43;;
18917;SDS011;9591;52.742;13.650;2024-02-21T05:11:37;20.60;;;7.27;;
18917;SDS011;9591;52.742;13.650;2024-02-21T05:14:24;26.50;;;7.20;;
18917;SDS011;9591;52.742;13.650;2024-02-21T05:17:11;27.10;;;7.67;;
18917;SDS011;9591;52.742;13.650;2024-02-21T05:19:58;23.73;;;6.10;;
18917;SDS011;9591;52.742;13.650;2024-02-21T05:22:45;24.23;;;7.63;;
18917;SDS011;9591;52.742;13.650;2024-02-21T05:25:32;25.57;;;8.60;;
18917;SDS011;9591;52.742;13.650;2024-02-21T05:28:21;23.60;;;7.27;;
18917;SDS011;9591;52.742;13.650;2024-02-21T05:31:08;26.03;;;7.80;;
18917;SDS011;9591;52.742;13.650;2024-02-21T05:33:56;27.30;;;7.93;;
18917;SDS011;9591;52.742;13.650;2024-02-21T05:36:47;26.13;;;8.50;;
18917;SDS011;9591;52.742;13.650;2024-02-21T05:39:35;15.33;;;6.57;;
18917;SDS011;9591;52.742;13.650;2024-02-21T05:42:22;20.63;;;7.33;;
18917;SDS011;9591;52.742;13.650;2024-02-21T05:45:10;27.13;;;6.67;;
18917;SDS011;9591;52.742;13.650;2024-02-21T05:47:57;14.30;;;6.23;;
18917;SDS011;9591;52.742;13.650;2024-02-21T05:50:44;23.83;;;7.67;;
18917;SDS011;9591;52.742;13.650;2024-02-21T05:53:31;25.03;;;6.63;;
18917;SDS011;9591;52.742;13.650;2024-02-21T05:56:18;14.40;;;5.17;;
18917;SDS011;9591;52.742;13.650;2024-02-21T05:59:05;19.30;;;7.27;;
18917;SDS011;9591;52.742;13.650;2024-02-21T06:01:59;17.30;;;7.20;;
18917;SDS011;9591;52.742;13.650;2024-02-21T06:04:48;16.47;;;6.70;;
18917;SDS011;9591;52.742;13.650;2024-02-21T06:07:35;19.47;;;6.97;;
18917;SDS011;9591;52.742;13.650;2024-02-21T06:10:22;22.37;;;7.87;;
18917;SDS011;9591;52.742;13.650;2024-02-21T06:13:09;24.13;;;7.53;;
18917;SDS011;9591;52.742;13.650;2024-02-21T06:15:56;19.43;;;7.80;;
18917;SDS011;9591;52.742;13.650;2024-02-21T06:18:46;15.03;;;7.17;;
18917;SDS011;9591;52.742;13.650;2024-02-21T06:21:32;16.67;;;6.47;;
18917;SDS011;9591;52.742;13.650;2024-02-21T06:24:19;20.67;;;7.23;;
18917;SDS011;9591;52.742;13.650;2024-02-21T06:27:06;25.03;;;7.67;;
18917;SDS011;9591;52.742;13.650;2024-02-21T06:29:55;19.10;;;7.07;;
18917;SDS011;9591;52.742;13.650;2024-02-21T06:32:42;21.20;;;6.53;;
18917;SDS011;9591;52.742;13.650;2024-02-21T06:35:33;20.50;;;6.90;;
18917;SDS011;9591;52.742;13.650;2024-02-21T06:38:20;23.63;;;7.73;;
18917;SDS011;9591;52.742;13.650;2024-02-21T06:41:14;24.13;;;7.27;;
18917;SDS011;9591;52.742;13.650;2024-02-21T06:44:01;19.87;;;6.70;;
18917;SDS011;9591;52.742;13.650;2024-02-21T06:46:48;20.03;;;7.37;;
18917;SDS011;9591;52.742;13.650;2024-02-21T06:49:35;22.77;;;6.87;;
18917;SDS011;9591;52.742;13.650;2024-02-21T06:52:24;19.23;;;6.83;;
18917;SDS011;9591;52.742;13.650;2024-02-21T06:55:11;24.03;;;7.03;;
18917;SDS011;9591;52.742;13.650;2024-02-21T06:57:58;20.40;;;7.33;;
18917;SDS011;9591;52.742;13.650;2024-02-21T07:00:45;22.00;;;6.77;;
18917;SDS011;9591;52.742;13.650;2024-02-21T07:03:32;24.27;;;7.30;;
18917;SDS011;9591;52.742;13.650;2024-02-21T07:06:19;20.10;;;7.23;;
18917;SDS011;9591;52.742;13.650;2024-02-21T07:09:07;18.07;;;7.33;;
18917;SDS011;9591;52.742;13.650;2024-02-21T07:11:54;18.23;;;7.57;;
18917;SDS011;9591;52.742;13.650;2024-02-21T07:14:42;20.83;;;7.30;;
18917;SDS011;9591;52.742;13.650;2024-02-21T07:17:28;19.97;;;6.80;;
18917;SDS011;9591;52.742;13.650;2024-02-21T07:20:15;24.20;;;7.40;;
18917;SDS011;9591;52.742;13.650;2024-02-21T07:23:02;20.03;;;7.13;;
18917;SDS011;9591;52.742;13.650;2024-02-21T07:25:51;19.13;;;6.43;;
18917;SDS011;9591;52.742;13.650;2024-02-21T07:28:39;17.17;;;6.57;;
18917;SDS011;9591;52.742;13.650;2024-02-21T07:31:27;15.70;;;6.03;;
18917;SDS011;9591;52.742;13.650;2024-02-21T07:34:20;19.33;;;6.93;;
18917;SDS011;9591;52.742;13.650;2024-02-21T07:37:07;28.87;;;7.63;;
18917;SDS011;9591;52.742;13.650;2024-02-21T07:39:55;23.67;;;7.60;;
18917;SDS011;9591;52.742;13.650;2024-02-21T07:42:44;20.53;;;6.90;;
18917;SDS011;9591;52.742;13.650;2024-02-21T07:45:36;20.90;;;7.70;;
18917;SDS011;9591;52.742;13.650;2024-02-21T07:48:25;24.20;;;5.47;;
18917;SDS011;9591;52.742;13.650;2024-02-21T07:51:12;25.90;;;7.53;;
18917;SDS011;9591;52.742;13.650;2024-02-21T07:53:58;19.87;;;7.70;;
18917;SDS011;9591;52.742;13.650;2024-02-21T07:56:45;14.73;;;5.90;;
18917;SDS011;9591;52.742;13.650;2024-02-21T07:59:34;17.90;;;6.97;;
18917;SDS011;9591;52.742;13.650;2024-02-21T08:02:21;22.80;;;7.63;;
18917;SDS011;9591;52.742;13.650;2024-02-21T08:05:08;17.80;;;7.27;;
18917;SDS011;9591;52.742;13.650;2024-02-21T08:07:54;25.93;;;7.80;;
18917;SDS011;9591;52.742;13.650;2024-02-21T08:10:43;18.63;;;7.00;;
18917;SDS011;9591;52.742;13.650;2024-02-21T08:13:30;20.57;;;8.00;;
18917;SDS011;9591;52.742;13.650;2024-02-21T08:16:18;20.43;;;7.37;;
18917;SDS011;9591;52.742;13.650;2024-02-21T08:19:05;18.57;;;7.20;;
18917;SDS011;9591;52.742;13.650;2024-02-21T08:21:52;21.30;;;7.17;;
18917;SDS011;9591;52.742;13.650;2024-02-21T08:24:39;28.67;;;8.10;;
18917;SDS011;9591;52.742;13.650;2024-02-21T08:27:26;10.87;;;5.03;;
18917;SDS011;9591;52.742;13.650;2024-02-21T08:30:13;24.17;;;7.63;;
18917;SDS011;9591;52.742;13.650;2024-02-21T08:33:01;18.47;;;6.60;;
18917;SDS011;9591;52.742;13.650;2024-02-21T08:35:49;21.80;;;7.73;;
18917;SDS011;9591;52.742;13.650;2024-02-21T08:38:35;19.93;;;7.83;;
18917;SDS011;9591;52.742;13.650;2024-02-21T08:41:23;21.83;;;7.20;;
18917;SDS011;9591;52.742;13.650;2024-02-21T08:44:29;18.63;;;7.30;;
18917;SDS011;9591;52.742;13.650;2024-02-21T08:47:17;19.53;;;7.20;;
18917;SDS011;9591;52.742;13.650;2024-02-21T08:50:05;19.43;;;6.67;;
18917;SDS011;9591;52.742;13.650;2024-02-21T08:53:10;19.63;;;7.43;;
18917;SDS011;9591;52.742;13.650;2024-02-21T08:55:58;21.00;;;8.17;;
18917;SDS011;9591;52.742;13.650;2024-02-21T08:58:45;18.43;;;6.17;;
18917;SDS011;9591;52.742;13.650;2024-02-21T09:01:32;19.40;;;7.20;;
18917;SDS011;9591;52.742;13.650;2024-02-21T09:04:20;23.40;;;7.40;;
18917;SDS011;9591;52.742;13.650;2024-02-21T09:07:08;22.13;;;7.30;;
18917;SDS011;9591;52.742;13.650;2024-02-21T09:09:55;15.20;;;6.60;;
18917;SDS011;9591;52.742;13.650;2024-02-21T09:12:42;19.50;;;7.30;;
18917;SDS011;9591;52.742;13.650;2024-02-21T09:15:29;19.83;;;7.83;;
18917;SDS011;9591;52.742;13.650;2024-02-21T09:18:18;21.57;;;7.30;;
18917;SDS011;9591;52.742;13.650;2024-02-21T09:21:05;18.53;;;7.03;;
18917;SDS011;9591;52.742;13.650;2024-02-21T09:23:53;23.63;;;7.00;;
18917;SDS011;9591;52.742;13.650;2024-02-21T09:26:44;18.20;;;6.53;;
18917;SDS011;9591;52.742;13.650;2024-02-21T09:29:31;24.47;;;7.53;;
18917;SDS011;9591;52.742;13.650;2024-02-21T09:32:18;22.37;;;8.23;;
18917;SDS011;9591;52.742;13.650;2024-02-21T09:35:05;21.50;;;7.10;;
18917;SDS011;9591;52.742;13.650;2024-02-21T09:37:52;15.80;;;6.50;;
18917;SDS011;9591;52.742;13.650;2024-02-21T09:40:40;16.03;;;5.97;;
18917;SDS011;9591;52.742;13.650;2024-02-21T09:43:28;21.00;;;7.43;;
18917;SDS011;9591;52.742;13.650;2024-02-21T09:46:16;26.27;;;7.33;;
18917;SDS011;9591;52.742;13.650;2024-02-21T09:49:08;15.20;;;6.77;;
18917;SDS011;9591;52.742;13.650;2024-02-21T09:52:18;20.63;;;7.77;;
18917;SDS011;9591;52.742;13.650;2024-02-21T09:55:07;18.50;;;7.77;;
18917;SDS011;9591;52.742;13.650;2024-02-21T09:57:57;15.87;;;7.37;;
18917;SDS011;9591;52.742;13.650;2024-02-21T10:00:45;19.30;;;7.20;;
18917;SDS011;9591;52.742;13.650;2024-02-21T10:03:32;18.47;;;7.63;;
18917;SDS011;9591;52.742;13.650;2024-02-21T10:06:20;14.63;;;7.27;;
18917;SDS011;9591;52.742;13.650;2024-02-21T10:09:06;19.33;;;7.20;;
18917;SDS011;9591;52.742;13.650;2024-02-21T10:11:54;16.37;;;6.47;;
18917;SDS011;9591;52.742;13.650;2024-02-21T10:14:43;13.93;;;6.73;;
18917;SDS011;9591;52.742;13.650;2024-02-21T10:17:30;11.77;;;4.40;;
18917;SDS011;9591;52.742;13.650;2024-02-21T10:20:16;13.67;;;7.07;;
18917;SDS011;9591;52.742;13.650;2024-02-21T10:23:03;15.97;;;6.90;;
18917;SDS011;9591;52.742;13.650;2024-02-21T10:25:53;18.00;;;6.93;;
18917;SDS011;9591;52.742;13.650;2024-02-21T10:28:41;16.43;;;7.13;;
18917;SDS011;9591;52.742;13.650;2024-02-21T10:31:31;17.63;;;7.07;;
18917;SDS011;9591;52.742;13.650;2024-02-21T10:34:18;18.57;;;7.67;;
18917;SDS011;9591;52.742;13.650;2024-02-21T10:37:06;15.20;;;4.60;;
18917;SDS011;9591;52.742;13.650;2024-02-21T10:39:53;13.40;;;6.20;;
18917;SDS011;9591;52.742;13.650;2024-02-21T10:42:40;14.37;;;6.80;;
18917;SDS011;9591;52.742;13.650;2024-02-21T10:45:29;17.57;;;7.63;;
18917;SDS011;9591;52.742;13.650;2024-02-21T10:48:20;16.00;;;6.70;;
18917;SDS011;9591;52.742;13.650;2024-02-21T10:51:16;12.97;;;6.00;;
18917;SDS011;9591;52.742;13.650;2024-02-21T10:54:08;15.27;;;6.73;;
18917;SDS011;9591;52.742;13.650;2024-02-21T10:57:09;16.77;;;5.87;;
18917;SDS011;9591;52.742;13.650;2024-02-21T10:59:59;15.63;;;6.77;;
18917;SDS011;9591;52.742;13.650;2024-02-21T11:02:48;13.20;;;6.53;;
18917;SDS011;9591;52.742;13.650;2024-02-21T11:05:37;14.50;;;6.30;;
18917;SDS011;9591;52.742;13.650;2024-02-21T11:08:25;9.73;;;5.93;;
18917;SDS011;9591;52.742;13.650;2024-02-21T11:11:13;9.17;;;4.73;;
18917;SDS011;9591;52.742;13.650;2024-02-21T11:14:18;16.30;;;5.50;;
18917;SDS011;9591;52.742;13.650;2024-02-21T11:17:14;13.47;;;5.90;;
18917;SDS011;9591;52.742;13.650;2024-02-21T11:20:10;12.30;;;5.83;;
18917;SDS011;9591;52.742;13.650;2024-02-21T11:22:59;8.80;;;4.63;;
18917;SDS011;9591;52.742;13.650;2024-02-21T11:25:47;10.27;;;5.27;;
18917;SDS011;9591;52.742;13.650;2024-02-21T11:28:34;9.63;;;5.10;;
18917;SDS011;9591;52.742;13.650;2024-02-21T11:31:21;10.20;;;5.53;;
18917;SDS011;9591;52.742;13.650;2024-02-21T11:34:09;12.83;;;5.93;;
18917;SDS011;9591;52.742;13.650;2024-02-21T11:36:56;15.67;;;4.97;;
18917;SDS011;9591;52.742;13.650;2024-02-21T11:39:46;9.00;;;5.07;;
18917;SDS011;9591;52.742;13.650;2024-02-21T11:42:35;12.03;;;5.47;;
18917;SDS011;9591;52.742;13.650;2024-02-21T11:45:25;15.07;;;5.27;;
18917;SDS011;9591;52.742;13.650;2024-02-21T11:48:12;7.83;;;4.50;;
18917;SDS011;9591;52.742;13.650;2024-02-21T11:50:59;8.60;;;5.00;;
18917;SDS011;9591;52.742;13.650;2024-02-21T11:53:46;8.03;;;3.87;;
18917;SDS011;9591;52.742;13.650;2024-02-21T11:56:46;14.27;;;6.13;;
18917;SDS011;9591;52.742;13.650;2024-02-21T11:59:33;6.83;;;4.17;;
18917;SDS011;9591;52.742;13.650;2024-02-21T12:02:20;12.03;;;4.30;;
18917;SDS011;9591;52.742;13.650;2024-02-21T12:05:07;8.13;;;4.47;;
18917;SDS011;9591;52.742;13.650;2024-02-21T12:07:55;11.87;;;4.63;;
18917;SDS011;9591;52.742;13.650;2024-02-21T12:10:43;11.37;;;4.53;;
18917;SDS011;9591;52.742;13.650;2024-02-21T12:13:38;12.30;;;4.83;;
18917;SDS011;9591;52.742;13.650;2024-02-21T12:16:24;9.57;;;4.17;;
18917;SDS011;9591;52.742;13.650;2024-02-21T12:19:13;9.40;;;4.23;;
18917;SDS011;9591;52.742;13.650;2024-02-21T12:22:02;6.57;;;3.47;;
18917;SDS011;9591;52.742;13.650;2024-02-21T12:24:51;6.23;;;3.33;;
18917;SDS011;9591;52.742;13.650;2024-02-21T12:27:38;6.57;;;3.50;;
18917;SDS011;9591;52.742;13.650;2024-02-21T12:30:27;8.80;;;3.73;;
18917;SDS011;9591;52.742;13.650;2024-02-21T12:33:15;9.93;;;3.90;;
18917;SDS011;9591;52.742;13.650;2024-02-21T12:36:02;8.40;;;3.87;;
18917;SDS011;9591;52.742;13.650;2024-02-21T12:38:50;7.03;;;4.00;;
18917;SDS011;9591;52.742;13.650;2024-02-21T12:41:37;4.63;;;3.57;;
18917;SDS011;9591;52.742;13.650;2024-02-21T12:44:25;6.83;;;3.40;;
18917;SDS011;9591;52.742;13.650;2024-02-21T12:47:14;4.57;;;2.77;;
18917;SDS011;9591;52.742;13.650;2024-02-21T12:50:01;5.63;;;3.80;;
18917;SDS011;9591;52.742;13.650;2024-02-21T12:52:52;7.40;;;3.60;;
18917;SDS011;9591;52.742;13.650;2024-02-21T12:55:39;6.50;;;3.93;;
18917;SDS011;9591;52.742;13.650;2024-02-21T12:58:26;7.27;;;3.60;;
18917;SDS011;9591;52.742;13.650;2024-02-21T13:01:17;6.97;;;3.40;;
18917;SDS011;9591;52.742;13.650;2024-02-21T13:04:05;4.73;;;3.60;;
18917;SDS011;9591;52.742;13.650;2024-02-21T13:06:53;4.13;;;3.03;;
18917;SDS011;9591;52.742;13.650;2024-02-21T13:09:40;6.07;;;3.77;;
18917;SDS011;9591;52.742;13.650;2024-02-21T13:12:26;4.77;;;3.20;;
18917;SDS011;9591;52.742;13.650;2024-02-21T13:15:15;3.80;;;2.97;;
18917;SDS011;9591;52.742;13.650;2024-02-21T13:18:03;7.70;;;3.87;;
18917;SDS011;9591;52.742;13.650;2024-02-21T13:20:51;6.13;;;3.23;;
18917;SDS011;9591;52.742;13.650;2024-02-21T13:23:39;8.87;;;3.37;;
18917;SDS011;9591;52.742;13.650;2024-02-21T13:26:26;5.40;;;2.97;;
18917;SDS011;9591;52.742;13.650;2024-02-21T13:29:13;4.73;;;2.67;;
18917;SDS011;9591;52.742;13.650;2024-02-21T13:32:00;6.40;;;2.80;;
18917;SDS011;9591;52.742;13.650;2024-02-21T13:34:47;3.23;;;2.50;;
18917;SDS011;9591;52.742;13.650;2024-02-21T13:37:36;5.57;;;2.87;;
18917;SDS011;9591;52.742;13.650;2024-02-21T13:40:23;4.80;;;2.90;;
18917;SDS011;9591;52.742;13.650;2024-02-21T13:43:10;4.70;;;2.67;;
18917;SDS011;9591;52.742;13.650;2024-02-21T13:45:58;5.30;;;2.33;;
18917;SDS011;9591;52.742;13.650;2024-02-21T13:48:45;4.13;;;2.70;;
18917;SDS011;9591;52.742;13.650;2024-02-21T13:51:32;3.33;;;2.63;;
18917;SDS011;9591;52.742;13.650;2024-02-21T13:54:22;3.77;;;2.60;;
18917;SDS011;9591;52.742;13.650;2024-02-21T13:57:09;2.70;;;2.50;;
18917;SDS011;9591;52.742;13.650;2024-02-21T13:59:56;3.73;;;2.60;;
18917;SDS011;9591;52.742;13.650;2024-02-21T14:02:44;5.30;;;2.80;;
18917;SDS011;9591;52.742;13.650;2024-02-21T14:05:31;4.13;;;2.47;;
18917;SDS011;9591;52.742;13.650;2024-02-21T14:08:18;4.20;;;2.20;;
18917;SDS011;9591;52.742;13.650;2024-02-21T14:11:06;3.67;;;2.23;;
18917;SDS011;9591;52.742;13.650;2024-02-21T14:13:53;3.77;;;2.30;;
18917;SDS011;9591;52.742;13.650;2024-02-21T14:16:43;2.50;;;2.10;;
18917;SDS011;9591;52.742;13.650;2024-02-21T14:19:29;3.07;;;2.57;;
18917;SDS011;9591;52.742;13.650;2024-02-21T14:22:16;7.07;;;2.40;;
18917;SDS011;9591;52.742;13.650;2024-02-21T14:25:04;5.27;;;2.50;;
18917;SDS011;9591;52.742;13.650;2024-02-21T14:27:53;3.80;;;2.70;;
18917;SDS011;9591;52.742;13.650;2024-02-21T14:30:43;3.93;;;2.27;;
18917;SDS011;9591;52.742;13.650;2024-02-21T14:33:30;3.20;;;2.17;;
18917;SDS011;9591;52.742;13.650;2024-02-21T14:36:17;2.87;;;2.57;;
18917;SDS011;9591;52.742;13.650;2024-02-21T14:39:03;5.20;;;2.33;;
18917;SDS011;9591;52.742;13.650;2024-02-21T14:41:51;6.07;;;2.90;;
18917;SDS011;9591;52.742;13.650;2024-02-21T14:44:39;6.77;;;2.47;;
18917;SDS011;9591;52.742;13.650;2024-02-21T14:47:26;4.83;;;2.50;;
18917;SDS011;9591;52.742;13.650;2024-02-21T14:50:13;3.80;;;2.50;;
18917;SDS011;9591;52.742;13.650;2024-02-21T14:53:01;7.00;;;2.80;;
18917;SDS011;9591;52.742;13.650;2024-02-21T14:55:48;4.00;;;2.70;;
18917;SDS011;9591;52.742;13.650;2024-02-21T14:58:35;4.70;;;2.70;;
18917;SDS011;9591;52.742;13.650;2024-02-21T15:01:23;4.37;;;2.50;;
18917;SDS011;9591;52.742;13.650;2024-02-21T15:04:10;6.73;;;2.77;;
18917;SDS011;9591;52.742;13.650;2024-02-21T15:06:58;7.80;;;3.03;;
18917;SDS011;9591;52.742;13.650;2024-02-21T15:09:45;5.37;;;2.87;;
18917;SDS011;9591;52.742;13.650;2024-02-21T15:12:32;5.13;;;3.17;;
18917;SDS011;9591;52.742;13.650;2024-02-21T15:15:18;8.40;;;3.20;;
18917;SDS011;9591;52.742;13.650;2024-02-21T15:18:07;8.03;;;3.00;;
18917;SDS011;9591;52.742;13.650;2024-02-21T15:20:53;6.83;;;3.17;;
18917;SDS011;9591;52.742;13.650;2024-02-21T15:23:40;10.23;;;3.87;;
18917;SDS011;9591;52.742;13.650;2024-02-21T15:26:29;6.33;;;3.50;;
18917;SDS011;9591;52.742;13.650;2024-02-21T15:29:17;7.93;;;3.13;;
18917;SDS011;9591;52.742;13.650;2024-02-21T15:32:05;8.47;;;4.10;;
18917;SDS011;9591;52.742;13.650;2024-02-21T15:34:55;7.40;;;3.30;;
18917;SDS011;9591;52.742;13.650;2024-02-21T15:37:43;11.83;;;3.87;;
18917;SDS011;9591;52.742;13.650;2024-02-21T15:40:31;14.13;;;4.17;;
18917;SDS011;9591;52.742;13.650;2024-02-21T15:43:21;9.93;;;4.20;;
18917;SDS011;9591;52.742;13.650;2024-02-21T15:46:11;9.73;;;4.20;;
18917;SDS011;9591;52.742;13.650;2024-02-21T15:48:58;11.90;;;4.17;;
18917;SDS011;9591;52.742;13.650;2024-02-21T15:51:46;10.83;;;4.03;;
18917;SDS011;9591;52.742;13.650;2024-02-21T15:54:33;10.57;;;3.70;;
18917;SDS011;9591;52.742;13.650;2024-02-21T15:57:21;9.50;;;4.30;;
18917;SDS011;9591;52.742;13.650;2024-02-21T16:00:08;10.30;;;4.20;;
18917;SDS011;9591;52.742;13.650;2024-02-21T16:02:58;6.07;;;3.53;;
18917;SDS011;9591;52.742;13.650;2024-02-21T16:05:45;5.43;;;3.70;;
18917;SDS011;9591;52.742;13.650;2024-02-21T16:08:33;10.40;;;4.03;;
18917;SDS011;9591;52.742;13.650;2024-02-21T16:11:22;7.50;;;3.40;;
18917;SDS011;9591;52.742;13.650;2024-02-21T16:14:12;7.23;;;3.80;;
18917;SDS011;9591;52.742;13.650;2024-02-21T16:16:59;4.80;;;3.10;;
18917;SDS011;9591;52.742;13.650;2024-02-21T16:19:46;9.27;;;4.43;;
18917;SDS011;9591;52.742;13.650;2024-02-21T16:22:34;4.60;;;3.23;;
18917;SDS011;9591;52.742;13.650;2024-02-21T16:25:23;6.07;;;3.33;;
18917;SDS011;9591;52.742;13.650;2024-02-21T16:28:09;9.10;;;3.23;;
18917;SDS011;9591;52.742;13.650;2024-02-21T16:30:56;9.13;;;3.20;;
18917;SDS011;9591;52.742;13.650;2024-02-21T16:33:44;7.90;;;2.83;;
18917;SDS011;9591;52.742;13.650;2024-02-21T16:36:32;7.17;;;2.87;;
18917;SDS011;9591;52.742;13.650;2024-02-21T16:39:19;7.13;;;2.93;;
18917;SDS011;9591;52.742;13.650;2024-02-21T16:42:07;5.07;;;3.03;;